Sioralik

KL  EN  DA
ASIAQ
Weather Now GREENLAND SURVEY
Updated [WGT/WGST] Temperature [°C] Wind [m/s] Air pressure [hPa] Relative humidity [%] Precipitation [mm]
Present Wind chill Speed Max
21.01 21:00-9,0-16,75,7 ⇒7,799967n/a
21.01 20:00-9,1-18,38,2 ⇒10,399977n/a
21.01 19:00-8,2-16,36,7 ⇗9,899970n/a
21.01 18:00-8,0-16,06,7 ⇑9,399957n/a
21.01 17:00-8,3-15,85,7 ⇗6,799960n/a
21.01 16:00-8,7-14,13,1 ⇗4,699974n/a
21.01 15:00-8,7-15,14,1 ⇗6,299962n/a
21.01 14:00-8,6-15,75,1 ⇗8,299966n/a
21.01 13:00-8,9-14,33,1 ⇗7,299961n/a
21.01 12:00-8,7-15,14,1 ⇒7,299965n/a
21.01 11:00-8,9-16,15,1 ⇒7,299979n/a
21.01 10:00-9,1-16,04,6 ⇗7,299981n/a
21.01 09:00-8,7-17,27,2 ⇗9,399971n/a
21.01 08:00-8,4-16,56,7 ⇗9,899955n/a
21.01 07:00-8,5-16,76,7 ⇒8,899858n/a
21.01 06:00-9,0-17,36,7 ⇗8,899874n/a
21.01 05:00-8,9-16,15,1 ⇒7,799872n/a
21.01 04:00-8,4-17,17,7 ⇗11,399754n/a
21.01 03:00-9,2-16,55,1 ⇒6,799763n/a
21.01 02:00-8,9-17,26,7 ⇒9,899765n/a
21.01 01:00-9,2-17,97,2 ⇒9,899663n/a
21.01 00:00-8,7-17,27,2 ⇗10,399658n/a
20.01 23:00-9,2-19,510,8 ⇗13,499576n/a
20.01 22:00-8,7-17,57,7 ⇗10,399469n/a
20.01 21:00-9,1-16,45,1 ⇒7,299474n/a
Position: (65.01305556,-52.52861111)

[Back]